Time;durP1;ratioP1;P1;durP2;ratioP2;P2;SDS_P1;SDS_P2;PMS_P1;PMS_P2;Temp;Humidity;BMP_temperature;BMP_pressure;BME280_temperature;BME280_humidity;BME280_pressure;Samples;Min_cycle;Max_cycle;Signal;HPM_P1;HPM_P2
2022/05/20 04:18:58;;;;;;;9.87;2.27;;;;;;;18.01;44.55;100487.31;31081525;28;96596;-73
2022/05/20 04:33:58;;;;;;;4.38;1.90;;;;;;;18.37;44.00;100506.69;31077205;28;106295;-72
2022/05/20 04:48:58;;;;;;;5.00;1.85;;;;;;;18.68;43.39;100523.97;31098260;28;110260;-74
2022/05/20 05:03:59;;;;;;;3.63;1.60;;;;;;;19.08;42.73;100539.94;31067688;28;112161;-77
2022/05/20 05:18:59;;;;;;;4.18;2.05;;;;;;;19.60;41.76;100550.56;31054103;28;96785;-73
2022/05/20 05:34:00;;;;;;;3.95;2.05;;;;;;;20.08;41.19;100549.09;30989491;28;96791;-73
2022/05/20 05:49:00;;;;;;;6.68;2.13;;;;;;;20.29;41.74;100556.78;30987043;28;96787;-75
2022/05/20 06:04:02;;;;;;;3.47;1.90;;;;;;;20.88;42.80;100564.38;30986474;28;96705;-71
2022/05/20 06:19:02;;;;;;;;;;;;;;;21.64;44.65;100545.75;30985923;28;97088;-72
2022/05/20 06:34:02;;;;;;;3.00;2.10;;;;;;;22.31;44.98;100549.91;30984387;28;96854;-73
2022/05/20 06:49:04;;;;;;;6.70;1.90;;;;;;;23.12;44.99;100540.06;30982253;28;108762;-76
2022/05/20 07:04:06;;;;;;;5.97;1.90;;;;;;;23.71;44.14;100549.75;30979473;28;96830;-72
2022/05/20 07:19:06;;;;;;;5.30;2.00;;;;;;;24.44;43.67;100538.75;30978339;28;97704;-74
2022/05/20 07:34:07;;;;;;;3.65;2.13;;;;;;;24.91;42.37;100551.84;30976817;28;97045;-74
2022/05/20 07:49:07;;;;;;;;;;;;;;;25.26;41.77;100563.31;30975484;28;97009;-72
2022/05/20 08:19:33;;;;;;;4.83;2.60;;;;;;;25.85;40.70;100570.63;30970492;28;97121;-72
2022/05/20 08:34:33;;;;;;;3.17;1.60;;;;;;;26.97;38.62;100553.09;30971802;28;96699;-72
2022/05/20 08:49:36;;;;;;;4.15;1.60;;;;;;;26.84;38.51;100559.09;30972802;28;111517;-73
2022/05/20 09:04:37;;;;;;;4.53;2.00;;;;;;;28.05;36.79;100554.16;30988947;28;97526;-68
2022/05/20 09:19:52;;;;;;;4.03;1.88;;;;;;;28.50;35.81;100533.97;30989363;28;97286;-69
2022/05/20 09:35:17;;;;;;;3.00;1.70;;;;;;;29.59;34.19;100525.78;30986552;28;97390;-68
2022/05/20 09:50:17;;;;;;;4.80;1.60;;;;;;;30.00;32.60;100511.63;30987669;28;97498;-71
2022/05/20 10:05:38;;;;;;;4.93;1.80;;;;;;;30.83;31.90;100505.84;30986055;28;96864;-70
2022/05/20 10:21:16;;;;;;;3.27;1.70;;;;;;;30.97;31.77;100496.84;30984027;28;97661;-71
2022/05/20 10:36:26;;;;;;;4.17;1.43;;;;;;;30.68;31.62;100484.91;30983447;28;98357;-76
2022/05/20 10:51:48;;;;;;;5.83;1.80;;;;;;;30.86;31.19;100469.47;30981515;28;97008;-79
2022/05/20 11:07:17;;;;;;;4.73;2.03;;;;;;;30.92;30.37;100470.25;30982403;28;97376;-76
2022/05/20 11:22:33;;;;;;;5.70;1.60;;;;;;;32.29;28.75;100452.50;30980785;28;97958;-74
2022/05/20 11:38:01;;;;;;;4.13;1.80;;;;;;;30.68;30.71;100454.66;30967842;28;97625;-84
2022/05/20 11:53:18;;;;;;;2.93;1.57;;;;;;;30.85;31.21;100436.78;30967625;28;98972;-76
2022/05/20 12:08:37;;;;;;;2.60;1.53;;;;;;;30.98;30.29;100422.25;30850472;28;98122;-76
2022/05/20 12:39:08;;;;;;;3.97;1.30;;;;;;;31.25;30.14;100390.44;30945558;28;97162;-72
2022/05/20 12:54:23;;;;;;;4.20;1.60;;;;;;;30.63;31.15;100364.00;30883555;28;97065;-76
2022/05/20 13:09:43;;;;;;;3.43;1.50;;;;;;;30.60;31.00;100339.88;30871059;28;97492;-74
2022/05/20 13:24:43;;;;;;;4.13;1.70;;;;;;;30.69;31.34;100323.53;30867820;28;97462;-74
2022/05/20 13:39:44;;;;;;;4.68;1.67;;;;;;;30.91;31.01;100289.84;30865075;28;96814;-72
2022/05/20 13:54:55;;;;;;;2.88;1.63;;;;;;;30.01;32.73;100270.75;30863825;28;96955;-76
2022/05/20 14:10:14;;;;;;;4.03;1.60;;;;;;;29.92;34.04;100245.91;30862318;28;97585;-77
2022/05/20 14:25:29;;;;;;;5.93;1.77;;;;;;;29.75;34.36;100229.94;30862857;28;96842;-78
2022/05/20 14:40:30;;;;;;;4.57;1.80;;;;;;;29.40;35.23;100209.34;30861468;28;96748;-72
2022/05/20 14:55:39;;;;;;;11.27;4.53;;;;;;;28.86;36.25;100196.56;30858604;28;97359;-69
2022/05/20 15:10:39;;;;;;;4.43;1.93;;;;;;;28.49;37.52;100164.38;30856258;28;97477;-71
2022/05/20 15:25:40;;;;;;;2.72;1.98;;;;;;;28.16;38.37;100139.50;30855679;28;97476;-73
2022/05/20 15:40:41;;;;;;;4.63;2.03;;;;;;;27.80;39.12;100134.31;30856995;28;97568;-79
2022/05/20 15:55:43;;;;;;;6.93;2.13;;;;;;;27.17;40.68;100103.88;30855286;28;96720;-81
2022/05/20 16:10:48;;;;;;;3.57;2.43;;;;;;;27.44;40.54;100107.25;30852428;28;96727;-80
2022/05/20 16:25:55;;;;;;;4.90;2.30;;;;;;;27.46;40.92;100074.97;30850671;28;96723;-69
2022/05/20 16:40:56;;;;;;;8.27;2.80;;;;;;;27.25;40.73;100058.69;30849916;28;97491;-71
2022/05/20 17:11:17;;;;;;;6.83;2.53;;;;;;;26.68;42.76;100019.94;30844989;28;96934;-70
2022/05/20 17:26:17;;;;;;;4.35;2.97;;;;;;;26.67;43.00;100000.00;30866166;28;101264;-74
2022/05/20 17:41:18;;;;;;;3.33;2.33;;;;;;;26.46;43.70;99976.63;30869330;28;98894;-80
2022/05/20 17:56:19;;;;;;;5.30;2.63;;;;;;;25.96;44.58;99944.63;30866655;28;100119;-83
2022/05/20 18:11:19;;;;;;;7.90;3.15;;;;;;;25.51;46.64;99935.50;30862042;28;97063;-79
2022/05/20 18:26:20;;;;;;;8.48;3.72;;;;;;;25.03;48.03;99907.72;30860295;28;97205;-73
2022/05/20 18:41:21;;;;;;;9.55;5.25;;;;;;;24.56;49.14;99858.66;30861446;28;96792;-75
2022/05/20 18:56:21;;;;;;;8.53;4.90;;;;;;;24.11;50.67;99813.97;30859925;28;99656;-74
2022/05/20 19:11:23;;;;;;;8.65;3.70;;;;;;;23.74;52.00;99782.31;30859235;28;97238;-74
2022/05/20 19:26:24;;;;;;;6.47;3.40;;;;;;;23.36;52.65;99768.88;30856868;28;96673;-76
2022/05/20 19:41:24;;;;;;;9.77;6.05;;;;;;;22.96;54.17;99751.25;30856396;28;96712;-74
2022/05/20 19:56:25;;;;;;;10.13;4.72;;;;;;;22.57;54.96;99733.38;30856243;28;97419;-79
2022/05/20 20:11:27;;;;;;;11.03;5.17;;;;;;;22.43;55.24;99710.47;30852942;28;97426;-77
2022/05/20 20:26:27;;;;;;;10.00;4.40;;;;;;;22.12;55.73;99677.66;30878839;28;97007;-74
2022/05/20 20:41:31;;;;;;;5.93;3.90;;;;;;;22.00;56.01;99620.06;30853119;28;97178;-76
2022/05/20 20:56:32;;;;;;;7.67;3.83;;;;;;;21.82;57.71;99592.28;30864666;28;97650;-74
2022/05/20 21:12:18;;;;;;;7.60;5.00;;;;;;;21.24;61.92;99643.47;30870854;28;97217;-79
2022/05/20 21:26:54;;;;;;;11.23;6.40;;;;;;;20.68;65.32;99647.16;30870129;28;96739;-79
2022/05/20 21:41:54;;;;;;;9.52;4.03;;;;;;;20.45;68.10;99602.16;30869492;28;96631;-75
2022/05/20 21:56:56;;;;;;;6.85;4.03;;;;;;;19.91;69.49;99468.38;30868416;28;96807;-78
2022/05/20 22:11:56;;;;;;;5.73;4.03;;;;;;;19.43;70.10;99448.22;30866048;28;97188;-76
2022/05/20 22:26:56;;;;;;;7.68;5.38;;;;;;;18.96;74.83;99467.41;30865111;28;97028;-78
2022/05/20 22:41:57;;;;;;;10.52;6.95;;;;;;;18.83;76.99;99465.81;30863814;28;96752;-78
2022/05/20 22:56:57;;;;;;;8.18;6.10;;;;;;;19.22;76.51;99482.19;30862108;28;96741;-80
2022/05/20 23:11:58;;;;;;;9.02;5.93;;;;;;;19.36;75.41;99501.59;30859265;28;104165;-77
2022/05/20 23:26:58;;;;;;;9.25;3.83;;;;;;;19.67;72.25;99526.38;30860324;28;97243;-81
2022/05/20 23:41:59;;;;;;;7.68;3.45;;;;;;;19.59;72.10;99589.75;30858938;28;106223;-76
2022/05/20 23:57:08;;;;;;;4.38;2.80;;;;;;;19.41;71.85;99605.13;30858297;28;96676;-75
